الصفحة الرئيسية
METAR-TAF:

METAR-TAF

مطار :

لونغمونت, كولورادو, الولايات المتحدة

دائرة عرض: 40-09-51N, خط طول: 105-09-49W, ارتفاع: 1541 متر

مراقبة الطقس الحالي

تاريخ ووقت الإصدار 22 دقيقة قبل الساعة 02:15UTC
ريح 3 عقدة من الشمال الغربي
درجة الحرارة 24°درجة مئوية
الرطوبة 36%
ضغط 1016 hPa
الرؤية: 16.1 كم
سماء صافية

METAR: KLMO 260215Z AUTO 31003KT 10SM CLR 24/08 A2999 RMK AO2 T02390078

زمن: 20:37 (02:37 UTC)


TAF: مفقودة

أرصاد الطقس والتوقعات من أكثر من 4000 مطار (تقارير الطقس للمطار METAR والتنبؤ بالطقس بالمطارTAF).

المحطات المتاحة هي النقط الصفراء والحمراء على الخريطة.

حرك المؤشر فوق النقطة لمعرفة اسم المحطة.

ثم انقر لمعرفة أرصاد وتوقعات الطقس.

لتغيير الخارطة: اضغط على الأزرار الخضراء مع رمز الصليب الأسود للتكبير. على الزر الأخضر مع شرطة للتصغير، أو على الأسهم الخضراء للخرائط المجاورة.


METAR-TAF: